createdAt,value
2022-08-01T00:01:00.938Z,97985.19
2022-08-01T00:03:49.496Z,97983.38
2022-08-01T00:06:37.970Z,97981.50
2022-08-01T00:09:26.411Z,97978.28
2022-08-01T00:12:16.316Z,97978.28
2022-08-01T00:15:06.569Z,97977.00
2022-08-01T00:17:55.271Z,97967.06
2022-08-01T00:20:43.832Z,97961.84
2022-08-01T00:23:32.627Z,97973.69
2022-08-01T00:26:21.164Z,97975.41
2022-08-01T00:30:01.096Z,97979.63
2022-08-01T00:32:19.260Z,97977.91
2022-08-01T00:35:08.255Z,97984.97
2022-08-01T00:37:56.842Z,97977.06
2022-08-01T00:40:45.406Z,97974.34
2022-08-01T00:43:33.892Z,97983.09
2022-08-01T00:46:23.676Z,97986.63
2022-08-01T00:49:12.257Z,97987.47
2022-08-01T00:52:01.292Z,97981.09
2022-08-01T00:54:50.481Z,97982.53
2022-08-01T00:58:02.601Z,97986.00
2022-08-01T01:00:52.895Z,97984.13
2022-08-01T01:03:58.488Z,97981.44
2022-08-01T01:06:58.264Z,97986.09
2022-08-01T01:09:52.934Z,97998.56
2022-08-01T01:12:56.962Z,97998.56
2022-08-01T01:15:49.850Z,97993.84
2022-08-01T01:18:43.989Z,97983.63
2022-08-01T01:21:48.294Z,97989.66
2022-08-01T01:24:44.910Z,97990.47
2022-08-01T01:27:44.912Z,97985.94
2022-08-01T01:30:35.882Z,97993.72
2022-08-01T01:33:29.374Z,97990.38
2022-08-01T01:36:20.507Z,97989.56
2022-08-01T01:39:09.191Z,97997.22
2022-08-01T01:42:00.080Z,97989.22
2022-08-01T01:44:50.762Z,97996.00
2022-08-01T01:47:42.019Z,97996.47
2022-08-01T01:50:31.835Z,97995.41
2022-08-01T01:53:24.775Z,97997.00
2022-08-01T01:56:16.147Z,97988.81
2022-08-01T01:59:06.813Z,97991.28
2022-08-01T02:02:05.446Z,97990.53
2022-08-01T02:04:57.259Z,97980.66
2022-08-01T02:07:46.899Z,97986.84
2022-08-01T02:10:38.421Z,97980.59
2022-08-01T02:13:27.234Z,97977.59
2022-08-01T02:16:17.975Z,97985.50
2022-08-01T02:19:06.561Z,97985.94
2022-08-01T02:22:02.144Z,97979.72
2022-08-01T02:24:56.750Z,97986.16
2022-08-01T02:27:49.973Z,97983.91
2022-08-01T02:30:44.079Z,97987.84
2022-08-01T02:33:38.984Z,97985.19
2022-08-01T02:36:33.034Z,97986.56
2022-08-01T02:39:24.534Z,97995.72
2022-08-01T02:42:15.302Z,97985.72
2022-08-01T02:45:06.604Z,97996.94
2022-08-01T02:47:59.858Z,97994.22
2022-08-01T02:50:51.669Z,98005.41
2022-08-01T02:53:45.018Z,97998.16
2022-08-01T02:56:39.378Z,98005.75
2022-08-01T02:59:30.865Z,97997.81
2022-08-01T03:02:20.264Z,98001.47
2022-08-01T03:05:10.500Z,98005.56
2022-08-01T03:08:02.709Z,98017.25
2022-08-01T03:10:54.733Z,98012.84
2022-08-01T03:13:47.437Z,98019.94
2022-08-01T03:16:37.919Z,98005.75
2022-08-01T03:19:28.603Z,98008.53
2022-08-01T03:22:18.152Z,98013.53
2022-08-01T03:25:08.449Z,98014.16
2022-08-01T03:28:00.244Z,98009.75
2022-08-01T03:30:51.459Z,98008.88
2022-08-01T03:33:40.031Z,98006.09
2022-08-01T03:36:30.715Z,98002.25
2022-08-01T03:39:21.513Z,98013.25
2022-08-01T03:42:16.282Z,98003.81
2022-08-01T03:45:13.357Z,98009.69
2022-08-01T03:48:07.482Z,98016.47
2022-08-01T03:50:56.567Z,98021.09
2022-08-01T03:53:47.514Z,98026.38
2022-08-01T03:56:37.138Z,98027.47
2022-08-01T03:59:26.133Z,98019.84
2022-08-01T04:02:16.009Z,98031.69
2022-08-01T04:05:06.766Z,98028.78
2022-08-01T04:07:57.306Z,98029.59
2022-08-01T04:10:45.880Z,98032.63
2022-08-01T04:13:36.849Z,98031.28
2022-08-01T04:16:25.891Z,98031.78
2022-08-01T04:19:14.395Z,98032.53
2022-08-01T04:22:05.061Z,98036.41
2022-08-01T04:24:58.290Z,98033.91
2022-08-01T04:27:52.203Z,98028.69
2022-08-01T04:30:42.475Z,98033.78
2022-08-01T04:33:33.508Z,98028.66
2022-08-01T04:36:25.528Z,98029.69
2022-08-01T04:39:18.114Z,98038.09
2022-08-01T04:42:07.764Z,98048.91
2022-08-01T04:44:56.438Z,98042.31
2022-08-01T04:47:45.851Z,98040.16
2022-08-01T04:50:34.845Z,98046.59
2022-08-01T04:53:23.955Z,98040.91
2022-08-01T04:56:14.805Z,98048.16
2022-08-01T04:59:20.896Z,98040.75
2022-08-01T05:02:10.447Z,98037.22
2022-08-01T05:04:58.822Z,98042.44
2022-08-01T05:07:47.321Z,98035.81
2022-08-01T05:10:35.871Z,98048.25
2022-08-01T05:13:25.759Z,98051.84
2022-08-01T05:16:14.252Z,98046.84
2022-08-01T05:19:03.681Z,98045.88
2022-08-01T05:21:52.119Z,98042.25
2022-08-01T05:24:41.638Z,98048.22
2022-08-01T05:27:30.151Z,98058.19
2022-08-01T05:30:21.137Z,98056.63
2022-08-01T05:33:09.693Z,98048.47
2022-08-01T05:35:58.190Z,98054.66
2022-08-01T05:38:47.350Z,98041.31
2022-08-01T05:41:36.003Z,98047.63
2022-08-01T05:44:24.280Z,98046.06
2022-08-01T05:47:14.245Z,98048.84
2022-08-01T05:50:02.743Z,98054.28
2022-08-01T05:52:51.413Z,98049.09
2022-08-01T05:55:39.715Z,98054.44
2022-08-01T05:58:28.242Z,98051.84
2022-08-01T06:01:16.647Z,98060.84
2022-08-01T06:04:06.935Z,98058.00
2022-08-01T06:06:55.309Z,98062.13
2022-08-01T06:09:43.649Z,98046.72
2022-08-01T06:12:35.715Z,98043.25
2022-08-01T06:15:24.361Z,98051.16
2022-08-01T06:18:12.880Z,98057.97
2022-08-01T06:21:02.637Z,98059.47
2022-08-01T06:23:51.103Z,98063.06
2022-08-01T06:26:39.501Z,98062.66
2022-08-01T06:29:27.873Z,98055.84
2022-08-01T06:32:26.322Z,98071.88
2022-08-01T06:35:16.215Z,98070.91
2022-08-01T06:38:06.103Z,98070.50
2022-08-01T06:40:54.503Z,98074.03
2022-08-01T06:43:43.223Z,98081.88
2022-08-01T06:46:32.524Z,98081.78
2022-08-01T06:49:21.774Z,98083.16
2022-08-01T06:52:10.716Z,98076.63
2022-08-01T06:55:00.885Z,98077.56
2022-08-01T06:57:51.175Z,98077.78
2022-08-01T07:00:39.530Z,98085.13
2022-08-01T07:03:52.742Z,98078.69
2022-08-01T07:06:36.715Z,98085.34
2022-08-01T07:09:25.243Z,98079.59
2022-08-01T07:12:14.955Z,98084.00
2022-08-01T07:15:04.763Z,98092.38
2022-08-01T07:17:53.079Z,98095.41
2022-08-01T07:20:51.106Z,98087.84
2022-08-01T07:23:46.115Z,98084.75
2022-08-01T07:26:34.901Z,98098.81
2022-08-01T07:29:25.694Z,98097.47
2022-08-01T07:32:14.173Z,98089.50
2022-08-01T07:35:02.683Z,98092.47
2022-08-01T07:37:51.108Z,98092.00
2022-08-01T07:40:39.671Z,98094.66
2022-08-01T07:43:28.078Z,98096.75
2022-08-01T07:46:18.240Z,98085.63
2022-08-01T07:49:06.653Z,98091.16
2022-08-01T07:52:13.718Z,98092.28
2022-08-01T07:55:02.490Z,98098.63
2022-08-01T07:57:51.190Z,98097.31
2022-08-01T08:00:39.700Z,98090.78
2022-08-01T08:03:29.512Z,98088.75
2022-08-01T08:06:17.841Z,98094.47
2022-08-01T08:09:06.267Z,98084.78
2022-08-01T08:11:54.599Z,98084.56
2022-08-01T08:14:43.016Z,98083.09
2022-08-01T08:17:35.569Z,98077.81
2022-08-01T08:20:28.211Z,98091.88
2022-08-01T08:23:42.088Z,98098.88
2022-08-01T08:26:32.032Z,98091.72
2022-08-01T08:29:20.665Z,98095.00
2022-08-01T08:32:11.020Z,98095.81
2022-08-01T08:34:59.640Z,98089.53
2022-08-01T08:37:53.262Z,98098.41
2022-08-01T08:40:44.566Z,98092.28
2022-08-01T08:43:33.069Z,98092.09
2022-08-01T08:46:28.275Z,98090.72
2022-08-01T08:49:19.568Z,98092.41
2022-08-01T08:52:08.893Z,98097.50
2022-08-01T08:55:00.514Z,98107.19
2022-08-01T08:57:50.022Z,98103.44
2022-08-01T09:00:38.613Z,98101.22
2022-08-01T09:03:27.205Z,98089.66
2022-08-01T09:06:15.709Z,98100.25
2022-08-01T09:09:04.694Z,98103.47
2022-08-01T09:11:57.445Z,98098.63
2022-08-01T09:14:48.038Z,98098.53
2022-08-01T09:17:43.456Z,98107.81
2022-08-01T09:20:35.714Z,98101.84
2022-08-01T09:23:34.136Z,98096.25
2022-08-01T09:26:30.976Z,98100.72
2022-08-01T09:29:36.260Z,98115.25
2022-08-01T09:32:28.485Z,98118.19
2022-08-01T09:35:30.161Z,98107.75
2022-08-01T09:38:21.710Z,98105.88
2022-08-01T09:41:10.153Z,98108.59
2022-08-01T09:44:02.768Z,98106.16
2022-08-01T09:46:56.631Z,98112.59
2022-08-01T09:49:51.950Z,98113.28
2022-08-01T09:52:41.566Z,98118.19
2022-08-01T09:55:30.226Z,98110.25
2022-08-01T09:58:18.613Z,98111.09
2022-08-01T10:01:08.822Z,98119.41
2022-08-01T10:04:12.997Z,98105.09
2022-08-01T10:07:07.853Z,98107.84
2022-08-01T10:09:56.645Z,98100.88
2022-08-01T10:12:46.002Z,98106.81
2022-08-01T10:15:38.183Z,98106.94
2022-08-01T10:18:28.416Z,98109.13
2022-08-01T10:21:44.020Z,98098.34
2022-08-01T10:24:30.135Z,98105.84
2022-08-01T10:27:24.727Z,98103.38
2022-08-01T10:30:26.611Z,98093.75
2022-08-01T10:33:20.008Z,98103.81
2022-08-01T10:36:27.509Z,98099.06
2022-08-01T10:39:20.062Z,98090.72
2022-08-01T10:42:15.947Z,98096.94
2022-08-01T10:45:06.247Z,98101.59
2022-08-01T10:48:02.454Z,98100.50
2022-08-01T10:50:56.296Z,98100.72
2022-08-01T10:53:50.492Z,98094.44
2022-08-01T10:56:46.260Z,98107.69
2022-08-01T10:59:50.652Z,98089.13
2022-08-01T11:03:01.758Z,98086.81
2022-08-01T11:05:54.452Z,98103.13
2022-08-01T11:08:44.780Z,98090.16
2022-08-01T11:12:01.116Z,98088.28
2022-08-01T11:15:29.096Z,98089.59
2022-08-01T11:18:37.787Z,98090.50
2022-08-01T11:22:02.116Z,98092.22
2022-08-01T11:25:01.164Z,98086.84
2022-08-01T11:28:29.045Z,98088.66
2022-08-01T11:31:37.491Z,98100.09
2022-08-01T11:34:56.941Z,98085.22
2022-08-01T11:37:45.813Z,98085.69
2022-08-01T11:40:34.273Z,98090.06
2022-08-01T11:43:24.181Z,98087.38
2022-08-01T11:46:13.893Z,98092.81
2022-08-01T11:49:29.132Z,98087.84
2022-08-01T11:52:21.175Z,98087.13
2022-08-01T11:55:11.917Z,98085.38
2022-08-01T11:58:06.712Z,98079.41
2022-08-01T12:01:00.463Z,98073.88
2022-08-01T12:03:58.050Z,98081.59
2022-08-01T12:06:46.752Z,98081.19
2022-08-01T12:09:39.310Z,98079.22
2022-08-01T12:12:28.224Z,98081.09
2022-08-01T12:15:17.945Z,98078.19
2022-08-01T12:18:09.124Z,98082.31
2022-08-01T12:21:05.878Z,98099.38
2022-08-01T12:24:02.880Z,98089.59
2022-08-01T12:26:51.312Z,98075.69
2022-08-01T12:29:41.558Z,98075.84
2022-08-01T12:32:35.498Z,98078.03
2022-08-01T12:35:27.281Z,98073.53
2022-08-01T12:38:18.577Z,98072.47
2022-08-01T12:41:12.292Z,98071.97
2022-08-01T12:44:00.924Z,98076.44
2022-08-01T12:46:49.627Z,98077.50
2022-08-01T12:49:39.310Z,98085.50
2022-08-01T12:52:29.233Z,98090.56
2022-08-01T12:55:20.041Z,98083.88
2022-08-01T12:58:15.847Z,98075.13
2022-08-01T13:01:06.936Z,98066.00
2022-08-01T13:04:02.814Z,98068.78
2022-08-01T13:06:55.588Z,98076.38
2022-08-01T13:09:52.662Z,98071.25
2022-08-01T13:12:42.348Z,98078.38
2022-08-01T13:15:35.718Z,98058.06
2022-08-01T13:18:31.538Z,98077.00
2022-08-01T13:21:22.178Z,98073.53
2022-08-01T13:24:12.062Z,98060.31
2022-08-01T13:27:05.143Z,98064.44
2022-08-01T13:29:54.518Z,98064.34
2022-08-01T13:32:45.193Z,98063.09
2022-08-01T13:35:33.746Z,98063.09
2022-08-01T13:38:42.850Z,98065.28
2022-08-01T13:41:35.520Z,98064.19
2022-08-01T13:44:25.314Z,98054.72
2022-08-01T13:47:15.854Z,98057.50
2022-08-01T13:50:05.997Z,98061.50
2022-08-01T13:52:54.645Z,98063.75
2022-08-01T13:55:43.096Z,98073.13
2022-08-01T13:58:31.545Z,98066.28
2022-08-01T14:01:21.676Z,98071.50
2022-08-01T14:04:10.385Z,98070.66
2022-08-01T14:07:00.394Z,98075.88
2022-08-01T14:10:04.545Z,98072.84
2022-08-01T14:12:59.902Z,98072.97
2022-08-01T14:15:51.118Z,98084.91
2022-08-01T14:18:44.534Z,98079.28
2022-08-01T14:21:33.547Z,98082.66
2022-08-01T14:24:21.987Z,98084.31
2022-08-01T14:27:10.656Z,98082.53
2022-08-01T14:30:02.569Z,98089.53
2022-08-01T14:32:51.960Z,98088.47
2022-08-01T14:36:06.755Z,98082.09
2022-08-01T14:38:51.046Z,98087.56
2022-08-01T14:41:39.450Z,98091.16
2022-08-01T14:44:33.044Z,98081.94
2022-08-01T14:47:22.610Z,98093.88
2022-08-01T14:50:13.555Z,98089.53
2022-08-01T14:53:03.390Z,98080.59
2022-08-01T14:55:51.867Z,98083.91
2022-08-01T14:58:40.284Z,98077.88
2022-08-01T15:01:28.801Z,98079.63
2022-08-01T15:04:18.513Z,98076.69
2022-08-01T15:07:06.920Z,98082.41
2022-08-01T15:09:57.341Z,98073.16
2022-08-01T15:12:50.511Z,98084.28
2022-08-01T15:15:39.123Z,98088.38
2022-08-01T15:18:27.813Z,98085.00
2022-08-01T15:21:34.262Z,98084.06
2022-08-01T15:24:25.122Z,98078.31
2022-08-01T15:27:15.029Z,98078.63
2022-08-01T15:30:03.608Z,98071.63
2022-08-01T15:32:52.037Z,98081.47
2022-08-01T15:35:40.887Z,98082.19
2022-08-01T15:38:29.291Z,98081.81
2022-08-01T15:41:17.893Z,98086.41
2022-08-01T15:44:07.738Z,98089.13
2022-08-01T15:46:56.212Z,98076.13
2022-08-01T15:49:44.763Z,98083.69
2022-08-01T15:52:33.207Z,98074.00
2022-08-01T15:55:21.598Z,98084.09
2022-08-01T15:58:11.655Z,98064.63
2022-08-01T16:01:01.834Z,98075.88
2022-08-01T16:03:50.438Z,98078.16
2022-08-01T16:06:39.109Z,98079.09
2022-08-01T16:09:27.659Z,98075.22
2022-08-01T16:12:16.046Z,98078.38
2022-08-01T16:15:04.780Z,98089.28
2022-08-01T16:17:54.625Z,98081.03
2022-08-01T16:20:50.248Z,98079.09
2022-08-01T16:23:39.000Z,98087.16
2022-08-01T16:26:28.291Z,98084.59
2022-08-01T16:29:16.716Z,98081.47
2022-08-01T16:32:16.990Z,98077.69
2022-08-01T16:35:16.589Z,98087.28
2022-08-01T16:38:05.769Z,98078.63
2022-08-01T16:40:55.661Z,98080.63
2022-08-01T16:43:46.132Z,98079.69
2022-08-01T16:46:42.553Z,98075.59
2022-08-01T16:49:32.075Z,98083.28
2022-08-01T16:52:22.021Z,98083.00
2022-08-01T16:55:17.604Z,98082.69
2022-08-01T16:58:06.110Z,98095.66
2022-08-01T17:01:52.684Z,98081.88
2022-08-01T17:04:09.356Z,98081.53
2022-08-01T17:06:58.150Z,98092.94
2022-08-01T17:09:47.948Z,98087.88
2022-08-01T17:12:36.613Z,98099.66
2022-08-01T17:15:25.068Z,98095.00
2022-08-01T17:18:13.558Z,98100.31
2022-08-01T17:21:02.060Z,98099.78
2022-08-01T17:23:50.905Z,98105.50
2022-08-01T17:26:40.640Z,98110.84
2022-08-01T17:29:28.955Z,98102.44
2022-08-01T17:32:32.765Z,98106.22
2022-08-01T17:35:21.486Z,98099.16
2022-08-01T17:38:09.891Z,98107.75
2022-08-01T17:40:58.337Z,98109.16
2022-08-01T17:43:48.255Z,98113.19
2022-08-01T17:46:37.028Z,98118.00
2022-08-01T17:49:52.424Z,98118.97
2022-08-01T17:52:35.691Z,98122.53
2022-08-01T17:55:56.457Z,98124.38
2022-08-01T17:58:50.628Z,98123.31
2022-08-01T18:01:45.259Z,98126.41
2022-08-01T18:04:34.684Z,98123.94
2022-08-01T18:08:01.215Z,98137.00
2022-08-01T18:10:33.893Z,98135.88
2022-08-01T18:13:22.369Z,98129.22
2022-08-01T18:16:13.309Z,98143.97
2022-08-01T18:19:03.526Z,98145.13
2022-08-01T18:21:52.340Z,98150.38
2022-08-01T18:24:40.872Z,98143.25
2022-08-01T18:28:16.433Z,98140.41
2022-08-01T18:30:37.691Z,98148.88
2022-08-01T18:33:26.160Z,98142.50
2022-08-01T18:36:32.016Z,98147.88
2022-08-01T18:39:21.971Z,98144.75
2022-08-01T18:42:14.085Z,98140.59
2022-08-01T18:45:02.721Z,98144.13
2022-08-01T18:47:51.168Z,98144.13
2022-08-01T18:50:40.557Z,98145.97
2022-08-01T18:53:30.518Z,98155.63
2022-08-01T18:56:19.165Z,98161.03
2022-08-01T18:59:07.955Z,98164.94
2022-08-01T19:01:56.350Z,98167.22
2022-08-01T19:04:45.341Z,98165.88
2022-08-01T19:08:05.140Z,98174.13
2022-08-01T19:10:44.704Z,98177.56
2022-08-01T19:13:33.242Z,98179.97
2022-08-01T19:16:21.776Z,98183.50
2022-08-01T19:19:10.516Z,98178.03
2022-08-01T19:21:59.377Z,98173.91
2022-08-01T19:47:18.917Z,98186.38
2022-08-01T19:50:08.249Z,98179.13
2022-08-01T19:52:58.959Z,98187.66
2022-08-01T19:55:48.591Z,98188.53
2022-08-01T19:58:40.217Z,98184.81
2022-08-01T20:01:29.161Z,98192.69
2022-08-01T20:04:19.876Z,98190.78
2022-08-01T20:07:09.285Z,98193.94
2022-08-01T20:09:58.404Z,98191.38
2022-08-01T20:12:47.943Z,98190.63
2022-08-01T20:15:36.340Z,98194.56
2022-08-01T20:18:25.321Z,98197.03
2022-08-01T20:21:15.814Z,98203.97
2022-08-01T20:24:04.808Z,98197.19
2022-08-01T20:26:55.821Z,98204.84
2022-08-01T20:29:46.115Z,98199.84
2022-08-01T20:32:43.331Z,98206.19
2022-08-01T20:35:51.097Z,98209.00
2022-08-01T20:38:43.581Z,98212.34
2022-08-01T20:41:32.678Z,98215.97
2022-08-01T20:44:22.033Z,98215.56
2022-08-01T20:47:10.791Z,98218.56
2022-08-01T20:50:29.448Z,98212.38
2022-08-01T20:53:28.351Z,98213.97
2022-08-01T20:56:26.668Z,98218.84
2022-08-01T20:59:39.973Z,98212.00
2022-08-01T21:02:42.677Z,98217.63
2022-08-01T21:05:33.582Z,98218.50
2022-08-01T21:08:25.293Z,98216.09
2022-08-01T21:11:22.002Z,98224.56
2022-08-01T21:14:13.472Z,98225.50
2022-08-01T21:17:08.405Z,98227.94
2022-08-01T21:20:01.245Z,98231.03
2022-08-01T21:23:05.866Z,98229.97
2022-08-01T21:25:55.275Z,98232.69
2022-08-01T21:28:53.860Z,98224.88
2022-08-01T21:31:43.177Z,98238.41
2022-08-01T21:34:31.915Z,98232.59
2022-08-01T21:37:20.291Z,98234.84
2022-08-01T21:40:11.449Z,98245.00
2022-08-01T21:43:01.996Z,98239.00
2022-08-01T21:45:57.891Z,98237.72
2022-08-01T21:48:47.983Z,98234.00
2022-08-01T21:51:43.695Z,98235.69
2022-08-01T21:54:41.729Z,98234.53
2022-08-01T21:57:45.311Z,98238.16
2022-08-01T22:00:37.599Z,98240.88
2022-08-01T22:03:36.210Z,98234.47
2022-08-01T22:06:25.950Z,98240.03
2022-08-01T22:09:15.367Z,98246.22
2022-08-01T22:12:08.127Z,98242.19
2022-08-01T22:14:58.709Z,98235.41
2022-08-01T22:17:49.708Z,98228.75
2022-08-01T22:20:39.618Z,98232.47
2022-08-01T22:23:28.858Z,98244.72
2022-08-01T22:26:17.674Z,98237.94
2022-08-01T22:29:06.821Z,98246.19
2022-08-01T22:31:57.026Z,98238.25
2022-08-01T22:34:45.503Z,98237.69
2022-08-01T22:37:56.998Z,98237.91
2022-08-01T22:40:49.472Z,98242.75
2022-08-01T22:43:42.910Z,98239.19
2022-08-01T22:46:46.238Z,98235.88
2022-08-01T22:49:41.360Z,98235.53
2022-08-01T22:52:31.529Z,98244.47
2022-08-01T22:55:22.562Z,98232.41
2022-08-01T22:58:12.984Z,98240.41
2022-08-01T23:01:02.966Z,98237.91
2022-08-01T23:03:53.528Z,98240.75
2022-08-01T23:06:44.162Z,98227.53
2022-08-01T23:09:39.191Z,98217.50
2022-08-01T23:12:45.547Z,98230.44
2022-08-01T23:15:35.083Z,98224.47
2022-08-01T23:18:24.734Z,98220.91
2022-08-01T23:21:14.727Z,98220.44
2022-08-01T23:24:06.238Z,98224.44
2022-08-01T23:26:55.484Z,98220.28
2022-08-01T23:29:47.912Z,98216.31
2022-08-01T23:32:36.704Z,98210.47
2022-08-01T23:35:25.779Z,98223.13
2022-08-01T23:38:16.003Z,98215.16
2022-08-01T23:41:15.003Z,98219.75
2022-08-01T23:44:03.484Z,98232.28
2022-08-01T23:46:54.895Z,98229.00
2022-08-01T23:49:53.116Z,98233.34
2022-08-01T23:52:48.224Z,98230.28
2022-08-01T23:55:38.362Z,98236.84
2022-08-01T23:58:26.851Z,98227.63
